Cameron Village, North Carolina
Current Conditions -  °F | °C
As of 6:51 PM on Friday 19 Dec 2014 (Local Time) from KRDU Reporting Station
Broken Clouds Broken Clouds  
Wind Chill:   Ceiling: 25000
Heat Index:   Visibility: 10mi
Dew Point: -2°   Wind: 0mph
Humidity: 60%   Direction: NA
Pressure: 30.18"   Gusts: NA
Location:  35.7907°N, 78.6542°W
Report Text: KRDU 192351Z 00000KT 10SM BKN250 06/M02 A3018 RMK AO2 SLP220 T00561017 10111 20050 51016
Loading
Personal Weather Stations






























Interactive Weather Map New forecast layout! Learn more

10-Day Weather Forecast

Advertisements
Track Severe Weather on mobile